Aérodrome :
LOGIN :

S'inscrire | Disclaimer

   EN    FR    IT 

 










Légende :    VFR   VFR Marginal   IFR   IFR Intensif   IFR Très Intensif
Visi : 
Plafond : 
>= 8 km
>= 3000ft
5 à 8 km
1000 à 3000 ft
1500m à 5 km
500 à 1000 ft
800 à 1500m
200 à 500 ft
< 800m
< 200 ft
Symboles :   Orages  Brouillard  Fortes neiges  Fortes précipitations  Vent > 20 kt
SIGMETs :   Divers  Orages  Givrage  Turbulence  Onde Orograph.  Cendres Volcan.






- Altitude de l'aérodrome : 121 ft
- Code IATA : HUY


EGNJ - Humberside

DERNIER METAR :
  • 151050Z 23010KT 9999 VCSH SCT012 BKN024 OVC040 16/13 Q1014

METARs EXPIRÉS :
  • 151020Z 22010KT 9999 VCSH SCT010 BKN023 16/13 Q1014
  • 150950Z 22009KT 9999 VCSH FEW009 SCT012 BKN029 15/13 Q1014
  • 150920Z 23009KT 7000 -RA FEW009 SCT012 BKN029 15/13 Q1014
  • 150850Z 22009KT 7000 -RA FEW009 SCT012 BKN029 14/13 Q1014
  • 150820Z 23011KT 7000 -RA FEW009 SCT015 BKN032 14/13 Q1014

TAF TAF EGNJ
Valide du 15 à 09h jusqu'au 15 à 18h UTC


150802Z 1509/1518 22009KT 9999 SCT030
TEMPO 1509/1518 6000 RA BKN012
PROB30
TEMPO 1509/1511 4000 +RA BKN008
ATIS : +44 1652 682 020



MET'MAP, la Météo Aéronautique d'un coup d'oeil ! - Copyright ORBIFLY Décembre 2007 - Disclaimer

ORBIFLY MET'MAP TEAM :

Programmation & Développement : Alexandra Zaïnal
Sur une idée originale de : Baudouin d'Aumeries
Assistance à la programmation : Marc-Olivier Méhu
Soutien technique & logistique : Manuel Goepfert

Contact : metmap@orbifly.com




SOURCES & CREDITS :

   NOAA